Terminal Aerodrome Forecast
Issued by NWS Shreveport, LA

Home | Current Version | Previous Version | Text Only | Print | Product List | Glossary On
Versions: 1 2 3 4 5 6 7 8 9 10 11 12 13 14 15 16 17 18
000
FTUS44 KSHV 312347 CCA
TAFLFK
TAF COR
KLFK 312347Z 0100/0124 16003KT P6SM FEW050 SCT180 BKN250
     FM010200 VRB03KT P6SM FEW050 BKN150 BKN250
      TEMPO 0110/0113 1SM BR BKN003
     FM011300 VRB03KT 4SM BR BKN005
     FM011500 15005KT P6SM BKN015
     FM011700 16007KT P6SM VCTS BKN035CB=

USA.gov is the U.S. government's official web portal to all federal, state and local government web resources and services.